sensor_id;sensor_type;location;lat;lon;timestamp;P1;durP1;ratioP1;P2;durP2;ratioP2
64291;SDS011;50628;51.008;13.658;2023-08-31T00:01:14;2.70;;;2.50;;
64291;SDS011;50628;51.008;13.658;2023-08-31T00:06:15;3.28;;;2.97;;
64291;SDS011;50628;51.008;13.658;2023-08-31T00:11:18;3.67;;;2.58;;
64291;SDS011;50628;51.008;13.658;2023-08-31T00:16:24;3.72;;;3.42;;
64291;SDS011;50628;51.008;13.658;2023-08-31T00:21:27;3.35;;;2.30;;
64291;SDS011;50628;51.008;13.658;2023-08-31T00:26:30;6.18;;;2.13;;
64291;SDS011;50628;51.008;13.658;2023-08-31T00:31:35;3.10;;;1.80;;
64291;SDS011;50628;51.008;13.658;2023-08-31T00:36:37;7.97;;;3.83;;
64291;SDS011;50628;51.008;13.658;2023-08-31T00:41:40;5.05;;;2.50;;
64291;SDS011;50628;51.008;13.658;2023-08-31T00:46:43;3.45;;;1.58;;
64291;SDS011;50628;51.008;13.658;2023-08-31T00:51:45;2.90;;;1.15;;
64291;SDS011;50628;51.008;13.658;2023-08-31T00:56:52;2.95;;;0.98;;
64291;SDS011;50628;51.008;13.658;2023-08-31T01:01:59;1.73;;;1.33;;
64291;SDS011;50628;51.008;13.658;2023-08-31T01:07:10;1.42;;;1.10;;
64291;SDS011;50628;51.008;13.658;2023-08-31T01:12:22;1.95;;;1.35;;
64291;SDS011;50628;51.008;13.658;2023-08-31T01:17:37;0.88;;;0.88;;
64291;SDS011;50628;51.008;13.658;2023-08-31T01:22:43;1.15;;;0.90;;
64291;SDS011;50628;51.008;13.658;2023-08-31T01:27:54;1.30;;;0.95;;
64291;SDS011;50628;51.008;13.658;2023-08-31T01:32:56;2.33;;;1.25;;
64291;SDS011;50628;51.008;13.658;2023-08-31T01:37:59;1.58;;;1.40;;
64291;SDS011;50628;51.008;13.658;2023-08-31T01:43:04;1.20;;;1.05;;
64291;SDS011;50628;51.008;13.658;2023-08-31T01:48:07;2.55;;;0.90;;
64291;SDS011;50628;51.008;13.658;2023-08-31T01:53:10;0.95;;;0.63;;
64291;SDS011;50628;51.008;13.658;2023-08-31T01:58:14;0.90;;;0.70;;
64291;SDS011;50628;51.008;13.658;2023-08-31T02:03:16;2.03;;;0.82;;
64291;SDS011;50628;51.008;13.658;2023-08-31T02:08:18;2.70;;;1.55;;
64291;SDS011;50628;51.008;13.658;2023-08-31T02:13:21;3.75;;;1.83;;
64291;SDS011;50628;51.008;13.658;2023-08-31T02:18:23;3.60;;;1.10;;
64291;SDS011;50628;51.008;13.658;2023-08-31T02:23:24;1.63;;;0.82;;
64291;SDS011;50628;51.008;13.658;2023-08-31T02:28:28;2.15;;;0.73;;
64291;SDS011;50628;51.008;13.658;2023-08-31T02:33:31;1.13;;;1.13;;
64291;SDS011;50628;51.008;13.658;2023-08-31T02:38:33;1.52;;;0.82;;
64291;SDS011;50628;51.008;13.658;2023-08-31T02:43:36;6.22;;;1.58;;
64291;SDS011;50628;51.008;13.658;2023-08-31T02:48:39;1.10;;;0.95;;
64291;SDS011;50628;51.008;13.658;2023-08-31T02:53:42;1.33;;;0.85;;
64291;SDS011;50628;51.008;13.658;2023-08-31T02:58:45;2.47;;;0.93;;
64291;SDS011;50628;51.008;13.658;2023-08-31T03:03:47;3.03;;;0.90;;
64291;SDS011;50628;51.008;13.658;2023-08-31T03:08:49;0.70;;;0.70;;
64291;SDS011;50628;51.008;13.658;2023-08-31T03:13:52;1.00;;;0.77;;
64291;SDS011;50628;51.008;13.658;2023-08-31T03:18:54;3.03;;;0.93;;
64291;SDS011;50628;51.008;13.658;2023-08-31T03:23:56;1.55;;;0.93;;
64291;SDS011;50628;51.008;13.658;2023-08-31T03:28:59;2.70;;;0.77;;
64291;SDS011;50628;51.008;13.658;2023-08-31T03:34:01;1.60;;;1.17;;
64291;SDS011;50628;51.008;13.658;2023-08-31T03:39:03;3.67;;;2.28;;
64291;SDS011;50628;51.008;13.658;2023-08-31T03:44:06;4.33;;;2.77;;
64291;SDS011;50628;51.008;13.658;2023-08-31T03:49:08;4.47;;;2.83;;
64291;SDS011;50628;51.008;13.658;2023-08-31T03:54:10;2.60;;;1.20;;
64291;SDS011;50628;51.008;13.658;2023-08-31T03:59:15;1.13;;;1.03;;
64291;SDS011;50628;51.008;13.658;2023-08-31T04:04:18;4.27;;;1.33;;
64291;SDS011;50628;51.008;13.658;2023-08-31T04:09:21;1.30;;;1.20;;
64291;SDS011;50628;51.008;13.658;2023-08-31T04:14:28;19.37;;;5.77;;
64291;SDS011;50628;51.008;13.658;2023-08-31T04:19:30;86.37;;;17.57;;
64291;SDS011;50628;51.008;13.658;2023-08-31T04:24:32;53.07;;;10.40;;
64291;SDS011;50628;51.008;13.658;2023-08-31T04:29:35;56.10;;;11.33;;
64291;SDS011;50628;51.008;13.658;2023-08-31T04:34:37;74.87;;;14.67;;
64291;SDS011;50628;51.008;13.658;2023-08-31T04:39:39;47.63;;;8.70;;
64291;SDS011;50628;51.008;13.658;2023-08-31T04:44:42;33.33;;;6.50;;
64291;SDS011;50628;51.008;13.658;2023-08-31T04:49:44;26.47;;;5.40;;
64291;SDS011;50628;51.008;13.658;2023-08-31T04:54:46;96.87;;;18.63;;
64291;SDS011;50628;51.008;13.658;2023-08-31T04:59:49;94.90;;;18.77;;
64291;SDS011;50628;51.008;13.658;2023-08-31T05:04:51;101.33;;;19.70;;
64291;SDS011;50628;51.008;13.658;2023-08-31T05:09:53;85.43;;;13.83;;
64291;SDS011;50628;51.008;13.658;2023-08-31T05:14:56;6.10;;;2.50;;
64291;SDS011;50628;51.008;13.658;2023-08-31T05:19:58;4.73;;;2.10;;
64291;SDS011;50628;51.008;13.658;2023-08-31T05:24:59;6.40;;;2.20;;
64291;SDS011;50628;51.008;13.658;2023-08-31T05:30:03;6.00;;;1.73;;
64291;SDS011;50628;51.008;13.658;2023-08-31T05:35:06;5.43;;;2.33;;
64291;SDS011;50628;51.008;13.658;2023-08-31T05:40:09;4.40;;;1.70;;
64291;SDS011;50628;51.008;13.658;2023-08-31T05:45:12;3.27;;;1.87;;
64291;SDS011;50628;51.008;13.658;2023-08-31T05:50:15;3.93;;;1.83;;
64291;SDS011;50628;51.008;13.658;2023-08-31T05:55:17;6.77;;;1.87;;
64291;SDS011;50628;51.008;13.658;2023-08-31T06:00:20;9.50;;;2.17;;
64291;SDS011;50628;51.008;13.658;2023-08-31T06:05:22;5.60;;;2.03;;
64291;SDS011;50628;51.008;13.658;2023-08-31T06:10:24;6.63;;;2.10;;
64291;SDS011;50628;51.008;13.658;2023-08-31T06:15:27;5.23;;;1.90;;
64291;SDS011;50628;51.008;13.658;2023-08-31T06:20:29;3.97;;;1.70;;
64291;SDS011;50628;51.008;13.658;2023-08-31T06:25:31;5.57;;;2.30;;
64291;SDS011;50628;51.008;13.658;2023-08-31T06:30:35;4.30;;;1.90;;
64291;SDS011;50628;51.008;13.658;2023-08-31T06:35:37;4.50;;;1.93;;
64291;SDS011;50628;51.008;13.658;2023-08-31T06:40:39;5.37;;;2.20;;
64291;SDS011;50628;51.008;13.658;2023-08-31T06:45:44;5.23;;;2.40;;
64291;SDS011;50628;51.008;13.658;2023-08-31T06:50:46;5.53;;;2.07;;
64291;SDS011;50628;51.008;13.658;2023-08-31T06:55:48;3.47;;;1.67;;
64291;SDS011;50628;51.008;13.658;2023-08-31T07:00:51;5.73;;;1.70;;
64291;SDS011;50628;51.008;13.658;2023-08-31T07:05:53;4.37;;;1.90;;
64291;SDS011;50628;51.008;13.658;2023-08-31T07:10:55;5.30;;;1.87;;
64291;SDS011;50628;51.008;13.658;2023-08-31T07:15:58;4.00;;;1.47;;
64291;SDS011;50628;51.008;13.658;2023-08-31T07:21:00;3.45;;;1.95;;
64291;SDS011;50628;51.008;13.658;2023-08-31T07:26:02;3.20;;;1.60;;
64291;SDS011;50628;51.008;13.658;2023-08-31T07:31:06;3.70;;;1.53;;
64291;SDS011;50628;51.008;13.658;2023-08-31T07:36:08;3.07;;;1.10;;
64291;SDS011;50628;51.008;13.658;2023-08-31T07:41:10;2.25;;;1.27;;
64291;SDS011;50628;51.008;13.658;2023-08-31T07:46:14;3.70;;;1.13;;
64291;SDS011;50628;51.008;13.658;2023-08-31T07:51:18;4.65;;;1.10;;
64291;SDS011;50628;51.008;13.658;2023-08-31T07:56:23;4.30;;;1.27;;
64291;SDS011;50628;51.008;13.658;2023-08-31T08:01:26;2.08;;;1.35;;
64291;SDS011;50628;51.008;13.658;2023-08-31T08:06:28;4.28;;;1.10;;
64291;SDS011;50628;51.008;13.658;2023-08-31T08:11:30;3.58;;;1.30;;
64291;SDS011;50628;51.008;13.658;2023-08-31T08:16:33;1.80;;;1.20;;
64291;SDS011;50628;51.008;13.658;2023-08-31T08:21:36;4.95;;;1.55;;
64291;SDS011;50628;51.008;13.658;2023-08-31T08:26:38;5.72;;;1.20;;
64291;SDS011;50628;51.008;13.658;2023-08-31T08:31:41;4.05;;;1.40;;
64291;SDS011;50628;51.008;13.658;2023-08-31T08:36:44;5.28;;;1.40;;
64291;SDS011;50628;51.008;13.658;2023-08-31T08:41:45;3.00;;;1.42;;
64291;SDS011;50628;51.008;13.658;2023-08-31T08:46:49;5.88;;;1.08;;
64291;SDS011;50628;51.008;13.658;2023-08-31T08:51:52;3.90;;;1.00;;
64291;SDS011;50628;51.008;13.658;2023-08-31T08:56:55;10.57;;;1.45;;
64291;SDS011;50628;51.008;13.658;2023-08-31T09:01:59;3.15;;;1.23;;
64291;SDS011;50628;51.008;13.658;2023-08-31T09:07:02;3.65;;;1.05;;
64291;SDS011;50628;51.008;13.658;2023-08-31T09:12:07;3.45;;;1.00;;
64291;SDS011;50628;51.008;13.658;2023-08-31T09:17:10;2.70;;;0.70;;
64291;SDS011;50628;51.008;13.658;2023-08-31T09:22:12;1.92;;;0.73;;
64291;SDS011;50628;51.008;13.658;2023-08-31T09:27:14;6.35;;;1.23;;
64291;SDS011;50628;51.008;13.658;2023-08-31T09:32:18;3.50;;;0.80;;
64291;SDS011;50628;51.008;13.658;2023-08-31T09:37:20;1.00;;;0.70;;
64291;SDS011;50628;51.008;13.658;2023-08-31T09:42:22;1.95;;;1.00;;
64291;SDS011;50628;51.008;13.658;2023-08-31T09:47:39;4.93;;;1.08;;
64291;SDS011;50628;51.008;13.658;2023-08-31T09:52:41;4.53;;;1.13;;
64291;SDS011;50628;51.008;13.658;2023-08-31T09:57:45;2.00;;;0.80;;
64291;SDS011;50628;51.008;13.658;2023-08-31T10:02:50;2.97;;;0.80;;
64291;SDS011;50628;51.008;13.658;2023-08-31T10:07:55;5.07;;;1.30;;
64291;SDS011;50628;51.008;13.658;2023-08-31T10:12:58;1.92;;;1.00;;
64291;SDS011;50628;51.008;13.658;2023-08-31T10:18:04;3.45;;;0.90;;
64291;SDS011;50628;51.008;13.658;2023-08-31T10:23:07;0.88;;;0.70;;
64291;SDS011;50628;51.008;13.658;2023-08-31T10:28:16;3.25;;;0.70;;
64291;SDS011;50628;51.008;13.658;2023-08-31T10:33:23;3.17;;;0.50;;
64291;SDS011;50628;51.008;13.658;2023-08-31T10:38:26;4.82;;;0.60;;
64291;SDS011;50628;51.008;13.658;2023-08-31T10:43:43;4.07;;;0.80;;
64291;SDS011;50628;51.008;13.658;2023-08-31T10:48:51;1.75;;;0.57;;
64291;SDS011;50628;51.008;13.658;2023-08-31T10:54:06;4.30;;;0.88;;
64291;SDS011;50628;51.008;13.658;2023-08-31T10:59:13;2.42;;;0.60;;
64291;SDS011;50628;51.008;13.658;2023-08-31T11:04:17;1.05;;;0.60;;
64291;SDS011;50628;51.008;13.658;2023-08-31T11:09:20;3.58;;;1.02;;
64291;SDS011;50628;51.008;13.658;2023-08-31T11:14:22;3.63;;;0.60;;
64291;SDS011;50628;51.008;13.658;2023-08-31T11:19:25;2.42;;;0.20;;
64291;SDS011;50628;51.008;13.658;2023-08-31T11:24:27;3.63;;;0.47;;
64291;SDS011;50628;51.008;13.658;2023-08-31T11:29:29;5.10;;;0.57;;
64291;SDS011;50628;51.008;13.658;2023-08-31T11:34:33;2.93;;;0.60;;
64291;SDS011;50628;51.008;13.658;2023-08-31T11:39:34;1.70;;;0.50;;
64291;SDS011;50628;51.008;13.658;2023-08-31T11:44:38;2.57;;;0.63;;
64291;SDS011;50628;51.008;13.658;2023-08-31T11:49:41;2.07;;;0.53;;
64291;SDS011;50628;51.008;13.658;2023-08-31T11:54:44;10.10;;;2.30;;
64291;SDS011;50628;51.008;13.658;2023-08-31T11:59:46;2.72;;;0.60;;
64291;SDS011;50628;51.008;13.658;2023-08-31T12:04:54;1.77;;;0.63;;
64291;SDS011;50628;51.008;13.658;2023-08-31T12:10:02;3.70;;;1.02;;
64291;SDS011;50628;51.008;13.658;2023-08-31T12:15:05;4.22;;;0.98;;
64291;SDS011;50628;51.008;13.658;2023-08-31T12:20:09;3.42;;;0.90;;
64291;SDS011;50628;51.008;13.658;2023-08-31T12:25:19;1.27;;;0.57;;
64291;SDS011;50628;51.008;13.658;2023-08-31T12:30:21;3.63;;;0.60;;
64291;SDS011;50628;51.008;13.658;2023-08-31T12:35:27;1.60;;;0.57;;
64291;SDS011;50628;51.008;13.658;2023-08-31T12:40:30;1.58;;;0.70;;
64291;SDS011;50628;51.008;13.658;2023-08-31T12:45:32;1.05;;;0.60;;
64291;SDS011;50628;51.008;13.658;2023-08-31T12:50:36;1.25;;;0.50;;
64291;SDS011;50628;51.008;13.658;2023-08-31T12:55:38;1.75;;;0.80;;
64291;SDS011;50628;51.008;13.658;2023-08-31T13:00:39;1.85;;;0.70;;
64291;SDS011;50628;51.008;13.658;2023-08-31T13:05:44;3.30;;;0.70;;
64291;SDS011;50628;51.008;13.658;2023-08-31T13:10:50;1.23;;;0.35;;
64291;SDS011;50628;51.008;13.658;2023-08-31T13:15:52;1.00;;;0.60;;
64291;SDS011;50628;51.008;13.658;2023-08-31T13:20:56;1.30;;;0.65;;
64291;SDS011;50628;51.008;13.658;2023-08-31T13:25:58;1.52;;;0.60;;
64291;SDS011;50628;51.008;13.658;2023-08-31T13:31:00;2.90;;;0.73;;
64291;SDS011;50628;51.008;13.658;2023-08-31T13:36:03;1.05;;;0.50;;
64291;SDS011;50628;51.008;13.658;2023-08-31T13:41:05;1.45;;;0.50;;
64291;SDS011;50628;51.008;13.658;2023-08-31T13:46:08;3.63;;;0.40;;
64291;SDS011;50628;51.008;13.658;2023-08-31T13:51:13;4.47;;;0.60;;
64291;SDS011;50628;51.008;13.658;2023-08-31T13:56:14;3.55;;;0.88;;
64291;SDS011;50628;51.008;13.658;2023-08-31T14:01:16;0.60;;;0.50;;
64291;SDS011;50628;51.008;13.658;2023-08-31T14:06:20;3.20;;;0.60;;
64291;SDS011;50628;51.008;13.658;2023-08-31T14:11:21;0.88;;;0.45;;
64291;SDS011;50628;51.008;13.658;2023-08-31T14:16:23;1.27;;;0.55;;
64291;SDS011;50628;51.008;13.658;2023-08-31T14:21:26;3.20;;;0.70;;
64291;SDS011;50628;51.008;13.658;2023-08-31T14:26:28;2.33;;;0.95;;
64291;SDS011;50628;51.008;13.658;2023-08-31T14:31:30;3.58;;;1.73;;
64291;SDS011;50628;51.008;13.658;2023-08-31T14:36:33;2.50;;;0.93;;
64291;SDS011;50628;51.008;13.658;2023-08-31T14:41:35;2.72;;;1.00;;
64291;SDS011;50628;51.008;13.658;2023-08-31T14:46:37;6.40;;;1.45;;
64291;SDS011;50628;51.008;13.658;2023-08-31T14:51:40;5.68;;;2.70;;
64291;SDS011;50628;51.008;13.658;2023-08-31T14:56:42;5.97;;;2.40;;
64291;SDS011;50628;51.008;13.658;2023-08-31T15:01:44;4.78;;;2.40;;
64291;SDS011;50628;51.008;13.658;2023-08-31T15:06:47;10.60;;;3.17;;
64291;SDS011;50628;51.008;13.658;2023-08-31T15:11:49;4.82;;;2.30;;
64291;SDS011;50628;51.008;13.658;2023-08-31T15:16:51;3.17;;;1.95;;
64291;SDS011;50628;51.008;13.658;2023-08-31T15:21:55;1.90;;;1.13;;
64291;SDS011;50628;51.008;13.658;2023-08-31T15:26:57;5.30;;;2.22;;
64291;SDS011;50628;51.008;13.658;2023-08-31T15:31:59;5.32;;;1.10;;
64291;SDS011;50628;51.008;13.658;2023-08-31T15:37:02;4.75;;;0.80;;
64291;SDS011;50628;51.008;13.658;2023-08-31T15:42:04;2.50;;;0.88;;
64291;SDS011;50628;51.008;13.658;2023-08-31T15:47:06;2.35;;;0.55;;
64291;SDS011;50628;51.008;13.658;2023-08-31T15:52:09;2.03;;;0.98;;
64291;SDS011;50628;51.008;13.658;2023-08-31T15:57:11;1.75;;;0.70;;
64291;SDS011;50628;51.008;13.658;2023-08-31T16:02:13;6.10;;;0.95;;
64291;SDS011;50628;51.008;13.658;2023-08-31T16:07:17;0.55;;;0.40;;
64291;SDS011;50628;51.008;13.658;2023-08-31T16:12:19;1.10;;;0.60;;
64291;SDS011;50628;51.008;13.658;2023-08-31T16:17:21;1.02;;;0.43;;
64291;SDS011;50628;51.008;13.658;2023-08-31T16:22:24;2.20;;;0.80;;
64291;SDS011;50628;51.008;13.658;2023-08-31T16:27:27;2.72;;;0.80;;
64291;SDS011;50628;51.008;13.658;2023-08-31T16:32:29;3.75;;;0.55;;
64291;SDS011;50628;51.008;13.658;2023-08-31T16:37:32;5.00;;;1.08;;
64291;SDS011;50628;51.008;13.658;2023-08-31T16:42:34;2.70;;;0.70;;
64291;SDS011;50628;51.008;13.658;2023-08-31T16:47:36;1.67;;;0.75;;
64291;SDS011;50628;51.008;13.658;2023-08-31T16:52:40;2.15;;;0.95;;
64291;SDS011;50628;51.008;13.658;2023-08-31T16:57:41;1.60;;;1.20;;
64291;SDS011;50628;51.008;13.658;2023-08-31T17:02:43;2.85;;;0.40;;
64291;SDS011;50628;51.008;13.658;2023-08-31T17:07:47;5.57;;;0.52;;
64291;SDS011;50628;51.008;13.658;2023-08-31T17:12:49;7.03;;;0.88;;
64291;SDS011;50628;51.008;13.658;2023-08-31T17:17:52;4.45;;;0.50;;
64291;SDS011;50628;51.008;13.658;2023-08-31T17:22:55;1.25;;;0.70;;
64291;SDS011;50628;51.008;13.658;2023-08-31T17:27:57;2.10;;;0.60;;
64291;SDS011;50628;51.008;13.658;2023-08-31T17:32:59;2.53;;;0.90;;
64291;SDS011;50628;51.008;13.658;2023-08-31T17:38:03;2.20;;;0.50;;
64291;SDS011;50628;51.008;13.658;2023-08-31T17:43:05;0.88;;;0.75;;
64291;SDS011;50628;51.008;13.658;2023-08-31T17:48:07;5.35;;;0.88;;
64291;SDS011;50628;51.008;13.658;2023-08-31T17:53:10;3.85;;;0.95;;
64291;SDS011;50628;51.008;13.658;2023-08-31T17:58:12;4.47;;;1.25;;
64291;SDS011;50628;51.008;13.658;2023-08-31T18:03:14;4.00;;;1.10;;
64291;SDS011;50628;51.008;13.658;2023-08-31T18:08:17;3.45;;;0.90;;
64291;SDS011;50628;51.008;13.658;2023-08-31T18:13:21;3.60;;;1.27;;
64291;SDS011;50628;51.008;13.658;2023-08-31T18:18:23;2.20;;;1.10;;
64291;SDS011;50628;51.008;13.658;2023-08-31T18:23:28;4.78;;;0.90;;
64291;SDS011;50628;51.008;13.658;2023-08-31T18:28:30;4.05;;;0.73;;
64291;SDS011;50628;51.008;13.658;2023-08-31T18:33:31;3.63;;;0.90;;
64291;SDS011;50628;51.008;13.658;2023-08-31T18:38:35;6.30;;;1.55;;
64291;SDS011;50628;51.008;13.658;2023-08-31T18:43:37;2.63;;;0.57;;
64291;SDS011;50628;51.008;13.658;2023-08-31T18:48:38;1.17;;;0.77;;
64291;SDS011;50628;51.008;13.658;2023-08-31T18:53:42;1.77;;;0.80;;
64291;SDS011;50628;51.008;13.658;2023-08-31T18:58:43;3.53;;;0.80;;
64291;SDS011;50628;51.008;13.658;2023-08-31T19:03:45;3.10;;;0.73;;
64291;SDS011;50628;51.008;13.658;2023-08-31T19:08:50;3.23;;;1.00;;
64291;SDS011;50628;51.008;13.658;2023-08-31T19:13:52;2.27;;;1.00;;
64291;SDS011;50628;51.008;13.658;2023-08-31T19:18:54;2.28;;;1.00;;
64291;SDS011;50628;51.008;13.658;2023-08-31T19:23:57;2.90;;;1.20;;
64291;SDS011;50628;51.008;13.658;2023-08-31T19:29:00;2.83;;;1.30;;
64291;SDS011;50628;51.008;13.658;2023-08-31T19:34:02;2.90;;;1.20;;
64291;SDS011;50628;51.008;13.658;2023-08-31T19:39:06;2.10;;;1.10;;
64291;SDS011;50628;51.008;13.658;2023-08-31T19:44:08;2.10;;;1.10;;
64291;SDS011;50628;51.008;13.658;2023-08-31T19:49:09;2.00;;;0.93;;
64291;SDS011;50628;51.008;13.658;2023-08-31T19:54:13;2.53;;;1.37;;
64291;SDS011;50628;51.008;13.658;2023-08-31T19:59:15;3.50;;;1.23;;
64291;SDS011;50628;51.008;13.658;2023-08-31T20:04:17;1.50;;;1.27;;
64291;SDS011;50628;51.008;13.658;2023-08-31T20:09:20;2.83;;;1.27;;
64291;SDS011;50628;51.008;13.658;2023-08-31T20:14:22;2.33;;;1.00;;
64291;SDS011;50628;51.008;13.658;2023-08-31T20:19:24;5.90;;;1.70;;
64291;SDS011;50628;51.008;13.658;2023-08-31T20:24:27;6.03;;;1.23;;
64291;SDS011;50628;51.008;13.658;2023-08-31T20:29:29;4.13;;;1.20;;
64291;SDS011;50628;51.008;13.658;2023-08-31T20:34:31;3.93;;;1.17;;
64291;SDS011;50628;51.008;13.658;2023-08-31T20:39:35;4.03;;;1.50;;
64291;SDS011;50628;51.008;13.658;2023-08-31T20:44:39;4.70;;;1.17;;
64291;SDS011;50628;51.008;13.658;2023-08-31T20:49:41;1.50;;;0.90;;
64291;SDS011;50628;51.008;13.658;2023-08-31T20:54:45;2.07;;;1.10;;
64291;SDS011;50628;51.008;13.658;2023-08-31T20:59:50;2.00;;;0.90;;
64291;SDS011;50628;51.008;13.658;2023-08-31T21:04:51;1.87;;;1.07;;
64291;SDS011;50628;51.008;13.658;2023-08-31T21:09:56;3.47;;;0.77;;
64291;SDS011;50628;51.008;13.658;2023-08-31T21:14:58;1.77;;;0.70;;
64291;SDS011;50628;51.008;13.658;2023-08-31T21:20:00;1.90;;;0.70;;
64291;SDS011;50628;51.008;13.658;2023-08-31T21:25:06;1.17;;;0.63;;
64291;SDS011;50628;51.008;13.658;2023-08-31T21:30:09;1.43;;;0.63;;
64291;SDS011;50628;51.008;13.658;2023-08-31T21:35:11;1.77;;;0.70;;
64291;SDS011;50628;51.008;13.658;2023-08-31T21:40:14;1.93;;;1.40;;
64291;SDS011;50628;51.008;13.658;2023-08-31T21:45:16;1.27;;;0.70;;
64291;SDS011;50628;51.008;13.658;2023-08-31T21:50:18;0.93;;;0.40;;
64291;SDS011;50628;51.008;13.658;2023-08-31T21:55:21;0.63;;;0.53;;
64291;SDS011;50628;51.008;13.658;2023-08-31T22:00:24;3.90;;;0.57;;
64291;SDS011;50628;51.008;13.658;2023-08-31T22:05:26;3.30;;;0.70;;
64291;SDS011;50628;51.008;13.658;2023-08-31T22:10:30;1.30;;;0.67;;
64291;SDS011;50628;51.008;13.658;2023-08-31T22:15:32;0.47;;;0.30;;
64291;SDS011;50628;51.008;13.658;2023-08-31T22:20:34;1.20;;;0.70;;
64291;SDS011;50628;51.008;13.658;2023-08-31T22:25:38;0.40;;;0.33;;
64291;SDS011;50628;51.008;13.658;2023-08-31T22:30:40;0.80;;;0.53;;
64291;SDS011;50628;51.008;13.658;2023-08-31T22:35:43;1.70;;;0.63;;
64291;SDS011;50628;51.008;13.658;2023-08-31T22:40:46;0.60;;;0.40;;
64291;SDS011;50628;51.008;13.658;2023-08-31T22:45:53;0.97;;;0.40;;
64291;SDS011;50628;51.008;13.658;2023-08-31T22:50:59;0.80;;;0.63;;
64291;SDS011;50628;51.008;13.658;2023-08-31T22:56:03;2.13;;;0.50;;
64291;SDS011;50628;51.008;13.658;2023-08-31T23:01:05;1.07;;;0.60;;
64291;SDS011;50628;51.008;13.658;2023-08-31T23:06:07;2.60;;;0.80;;
64291;SDS011;50628;51.008;13.658;2023-08-31T23:11:11;4.03;;;0.70;;
64291;SDS011;50628;51.008;13.658;2023-08-31T23:16:12;2.37;;;1.23;;
64291;SDS011;50628;51.008;13.658;2023-08-31T23:21:14;2.13;;;1.00;;
64291;SDS011;50628;51.008;13.658;2023-08-31T23:26:17;1.80;;;1.07;;
64291;SDS011;50628;51.008;13.658;2023-08-31T23:31:19;3.43;;;1.00;;
64291;SDS011;50628;51.008;13.658;2023-08-31T23:36:21;2.90;;;1.20;;
64291;SDS011;50628;51.008;13.658;2023-08-31T23:41:26;3.13;;;1.10;;
64291;SDS011;50628;51.008;13.658;2023-08-31T23:46:28;1.50;;;1.07;;
64291;SDS011;50628;51.008;13.658;2023-08-31T23:51:30;2.90;;;1.00;;
64291;SDS011;50628;51.008;13.658;2023-08-31T23:56:34;2.07;;;1.20;;
